RYR42W LBBG-EGSS
Flight info
| Callsign | RYR42W |
|---|---|
| Flight time | N/A |
| Altitude | 36000 |
| Route | BUVAK3S/04 BUVAK T777 NUPVU L602 KOMAN DCT OBUGA DCT GILEP DCT BEGLA DCT DITIS DCT OKG DCT VELIS DCT SWALM DCT TIVUN DCT BUDIP DCT ODVIL DCT NOGRO M40 RINIS |
| Aircraft | B738/M-SDE2E3FGHIRWXY/LB1 |
Departure
| Time | 2026-04-30 15:05 |
|---|---|
| Airport | Burgas Airport (LBBG) |
Arrival
| Time | N/A |
|---|---|
| Airport | London Stansted Airport (EGSS) |
| Time | Latitude | Longitude | Altitude | Speed | Heading |
|---|---|---|---|---|---|
| 2026-04-30 14:39 | 42.56708 | 27.51721 | 173 ft | 0 kts | 91° |
| 2026-04-30 14:57 | 42.56712 | 27.51689 | 173 ft | 4 kts | 134° |
| 2026-04-30 14:58 | 42.56753 | 27.51698 | 173 ft | 2 kts | 228° |
| 2026-04-30 14:58 | 42.56754 | 27.51700 | 173 ft | 0 kts | 229° |
| 2026-04-30 15:00 | 42.56741 | 27.51680 | 173 ft | 7 kts | 228° |
| 2026-04-30 15:01 | 42.56635 | 27.51519 | 172 ft | 16 kts | 229° |
| 2026-04-30 15:01 | 42.56559 | 27.51401 | 172 ft | 17 kts | 229° |
| 2026-04-30 15:01 | 42.56410 | 27.51173 | 172 ft | 15 kts | 228° |
| 2026-04-30 15:02 | 42.56339 | 27.51067 | 172 ft | 15 kts | 227° |
| 2026-04-30 15:02 | 42.56270 | 27.50967 | 172 ft | 14 kts | 228° |
| 2026-04-30 15:03 | 42.56084 | 27.50687 | 172 ft | 13 kts | 229° |
| 2026-04-30 15:03 | 42.55969 | 27.50513 | 172 ft | 12 kts | 227° |
| 2026-04-30 15:04 | 42.55912 | 27.50307 | 172 ft | 14 kts | 310° |
| 2026-04-30 15:04 | 42.56297 | 27.50580 | 174 ft | 81 kts | 45° |
| 2026-04-30 15:05 | 42.58311 | 27.53237 | 1428 ft | 142 kts | 45° |
| 2026-04-30 15:06 | 42.59735 | 27.55144 | 2777 ft | 146 kts | 47° |
| 2026-04-30 15:06 | 42.61626 | 27.56759 | 3484 ft | 203 kts | 360° |
| 2026-04-30 15:07 | 42.64486 | 27.54995 | 4174 ft | 252 kts | 328° |
| 2026-04-30 15:07 | 42.67476 | 27.52026 | 5449 ft | 275 kts | 326° |
| 2026-04-30 15:08 | 42.70537 | 27.48983 | 7262 ft | 273 kts | 324° |
| 2026-04-30 15:08 | 42.75098 | 27.44498 | 9733 ft | 275 kts | 322° |
| 2026-04-30 15:09 | 42.78353 | 27.41312 | 10430 ft | 308 kts | 322° |